createdAt,value
2017-07-10T00:00:50.330Z,0
2017-07-10T00:01:52.611Z,0
2017-07-10T00:02:55.517Z,0
2017-07-10T00:03:57.406Z,0
2017-07-10T00:05:00.561Z,0
2017-07-10T00:06:02.619Z,0
2017-07-10T00:07:05.372Z,0
2017-07-10T00:08:07.377Z,0
2017-07-10T00:09:10.394Z,0
2017-07-10T00:10:12.617Z,0
2017-07-10T00:11:15.459Z,0
2017-07-10T00:12:17.839Z,0
2017-07-10T00:13:21.104Z,0
2017-07-10T00:14:23.028Z,0
2017-07-10T00:15:24.897Z,0
2017-07-10T00:16:26.833Z,0
2017-07-10T00:17:29.978Z,0
2017-07-10T00:18:30.954Z,0
2017-07-10T00:19:33.191Z,0
2017-07-10T00:20:35.117Z,0
2017-07-10T00:21:39.265Z,0
2017-07-10T00:22:42.167Z,0
2017-07-10T00:23:44.908Z,0
2017-07-10T00:24:47.680Z,0
2017-07-10T00:25:49.431Z,0
2017-07-10T00:26:51.242Z,0
2017-07-10T00:27:53.550Z,0
2017-07-10T00:28:55.457Z,0
2017-07-10T00:29:57.268Z,0
2017-07-10T00:30:59.070Z,0
2017-07-10T00:32:00.809Z,0
2017-07-10T00:33:02.948Z,0
2017-07-10T00:34:04.748Z,0
2017-07-10T00:35:06.703Z,0
2017-07-10T00:36:08.510Z,0
2017-07-10T00:37:10.311Z,0
2017-07-10T00:38:12.580Z,0
2017-07-10T00:39:14.380Z,0
2017-07-10T00:40:16.213Z,0
2017-07-10T00:41:18.056Z,0
2017-07-10T00:42:20.674Z,0
2017-07-10T00:43:22.824Z,0
2017-07-10T00:44:25.613Z,0
2017-07-10T00:45:27.547Z,0
2017-07-10T00:46:30.714Z,0
2017-07-10T00:47:32.655Z,0
2017-07-10T00:48:35.787Z,0
2017-07-10T00:49:37.660Z,0
2017-07-10T00:50:39.466Z,0
2017-07-10T00:51:41.299Z,0
2017-07-10T00:52:43.103Z,0
2017-07-10T00:53:45.455Z,0
2017-07-10T00:54:47.284Z,0
2017-07-10T00:55:49.183Z,0
2017-07-10T00:56:50.972Z,0
2017-07-10T00:57:52.809Z,0
2017-07-10T00:58:54.971Z,0
2017-07-10T00:59:56.839Z,0
2017-07-10T01:00:58.712Z,0
2017-07-10T01:02:00.616Z,0
2017-07-10T01:03:02.629Z,0
2017-07-10T01:04:04.722Z,0
2017-07-10T01:05:06.548Z,0
2017-07-10T01:06:08.443Z,0
2017-07-10T01:07:10.397Z,0
2017-07-10T01:08:12.295Z,0
2017-07-10T01:09:14.541Z,0
2017-07-10T01:10:16.407Z,0
2017-07-10T01:11:18.235Z,0
2017-07-10T01:12:20.106Z,0
2017-07-10T01:13:21.917Z,0
2017-07-10T01:14:24.155Z,0
2017-07-10T01:15:26.008Z,0
2017-07-10T01:16:27.760Z,0
2017-07-10T01:17:29.541Z,0
2017-07-10T01:18:31.400Z,0
2017-07-10T01:19:33.478Z,0
2017-07-10T01:20:35.238Z,0
2017-07-10T01:21:37.138Z,0
2017-07-10T01:22:39.023Z,0
2017-07-10T01:23:40.909Z,0
2017-07-10T01:24:43.172Z,0
2017-07-10T01:25:45.038Z,0
2017-07-10T01:26:46.901Z,0
2017-07-10T01:27:48.737Z,0
2017-07-10T01:28:50.579Z,0
2017-07-10T01:29:52.788Z,0
2017-07-10T01:30:54.652Z,0
2017-07-10T01:31:56.579Z,0
2017-07-10T01:32:58.459Z,0
2017-07-10T01:34:00.369Z,0
2017-07-10T01:35:02.580Z,0
2017-07-10T01:36:04.320Z,0
2017-07-10T01:37:06.248Z,0
2017-07-10T01:38:07.971Z,0
2017-07-10T01:39:22.527Z,0
2017-07-10T01:40:25.338Z,0
2017-07-10T01:41:27.218Z,0
2017-07-10T01:42:28.940Z,0
2017-07-10T01:43:30.759Z,0
2017-07-10T01:44:32.533Z,0
2017-07-10T01:45:34.815Z,0
2017-07-10T01:46:36.594Z,0
2017-07-10T01:47:38.495Z,0
2017-07-10T01:48:40.273Z,0
2017-07-10T01:49:42.100Z,0
2017-07-10T01:50:44.373Z,0
2017-07-10T01:51:46.168Z,0
2017-07-10T01:52:48.024Z,0
2017-07-10T01:53:49.830Z,0
2017-07-10T01:54:51.714Z,0
2017-07-10T01:55:53.984Z,0
2017-07-10T01:56:55.858Z,0
2017-07-10T01:57:57.745Z,0
2017-07-10T01:58:59.519Z,0
2017-07-10T02:00:01.397Z,0
2017-07-10T02:01:03.712Z,0
2017-07-10T02:02:05.611Z,0
2017-07-10T02:03:07.486Z,0
2017-07-10T02:04:09.290Z,0
2017-07-10T02:05:11.059Z,0
2017-07-10T02:06:13.165Z,0
2017-07-10T02:07:15.088Z,0
2017-07-10T02:08:16.856Z,0
2017-07-10T02:09:18.616Z,0
2017-07-10T02:10:20.406Z,0
2017-07-10T02:11:22.651Z,0
2017-07-10T02:12:24.527Z,0
2017-07-10T02:13:26.318Z,0
2017-07-10T02:14:28.221Z,0
2017-07-10T02:15:30.098Z,0
2017-07-10T02:16:32.322Z,0
2017-07-10T02:17:34.142Z,0
2017-07-10T02:18:36.025Z,0
2017-07-10T02:19:37.898Z,0
2017-07-10T02:20:39.800Z,0
2017-07-10T02:21:42.001Z,0
2017-07-10T02:22:43.863Z,0
2017-07-10T02:23:45.747Z,0
2017-07-10T02:24:47.542Z,0
2017-07-10T02:25:49.448Z,0
2017-07-10T02:26:51.698Z,0
2017-07-10T02:27:53.573Z,0
2017-07-10T02:28:55.377Z,0
2017-07-10T02:29:57.185Z,0
2017-07-10T02:30:58.956Z,0
2017-07-10T02:32:01.040Z,0
2017-07-10T02:33:02.896Z,0
2017-07-10T02:34:04.816Z,0
2017-07-10T02:35:06.582Z,0
2017-07-10T02:36:08.373Z,0
2017-07-10T02:37:10.520Z,0
2017-07-10T02:38:12.294Z,0
2017-07-10T02:39:14.173Z,0
2017-07-10T02:40:15.982Z,0
2017-07-10T02:41:17.911Z,0
2017-07-10T02:42:19.996Z,0
2017-07-10T02:43:21.944Z,0
2017-07-10T02:44:23.754Z,0
2017-07-10T02:45:25.586Z,0
2017-07-10T02:46:27.418Z,0
2017-07-10T02:47:29.754Z,0
2017-07-10T02:48:31.592Z,0
2017-07-10T02:49:33.400Z,0
2017-07-10T02:50:35.219Z,0
2017-07-10T02:51:37.119Z,0
2017-07-10T02:52:39.236Z,0
2017-07-10T02:53:41.114Z,4
2017-07-10T02:54:42.930Z,4
2017-07-10T02:55:44.790Z,4
2017-07-10T02:56:46.680Z,0
2017-07-10T02:57:49.005Z,0
2017-07-10T02:58:50.918Z,4
2017-07-10T02:59:52.819Z,4
2017-07-10T03:00:54.711Z,4
2017-07-10T03:01:56.553Z,8
2017-07-10T03:02:58.565Z,8
2017-07-10T03:04:00.417Z,8
2017-07-10T03:05:02.234Z,4
2017-07-10T03:06:04.132Z,8
2017-07-10T03:07:05.987Z,8
2017-07-10T03:08:08.022Z,12
2017-07-10T03:09:09.860Z,12
2017-07-10T03:10:11.696Z,8
2017-07-10T03:11:13.526Z,12
2017-07-10T03:12:15.405Z,12
2017-07-10T03:13:17.555Z,12
2017-07-10T03:14:19.442Z,12
2017-07-10T03:15:21.288Z,12
2017-07-10T03:16:23.230Z,16
2017-07-10T03:17:25.090Z,16
2017-07-10T03:18:27.246Z,20
2017-07-10T03:19:29.053Z,20
2017-07-10T03:20:30.904Z,20
2017-07-10T03:21:32.782Z,24
2017-07-10T03:22:34.616Z,24
2017-07-10T03:23:36.733Z,28
2017-07-10T03:24:38.613Z,32
2017-07-10T03:25:40.423Z,32
2017-07-10T03:26:42.241Z,36
2017-07-10T03:27:44.121Z,40
2017-07-10T03:28:46.396Z,40
2017-07-10T03:29:48.257Z,48
2017-07-10T03:30:50.165Z,48
2017-07-10T03:31:51.973Z,52
2017-07-10T03:32:53.869Z,48
2017-07-10T03:33:56.181Z,48
2017-07-10T03:34:57.953Z,52
2017-07-10T03:35:59.731Z,52
2017-07-10T03:37:01.665Z,52
2017-07-10T03:38:03.516Z,52
2017-07-10T03:39:05.737Z,52
2017-07-10T03:40:07.601Z,52
2017-07-10T03:41:09.487Z,52
2017-07-10T03:42:11.386Z,52
2017-07-10T03:43:13.180Z,52
2017-07-10T03:44:15.294Z,52
2017-07-10T03:45:17.085Z,56
2017-07-10T03:46:18.871Z,56
2017-07-10T03:47:20.692Z,56
2017-07-10T03:48:22.525Z,52
2017-07-10T03:49:24.743Z,52
2017-07-10T03:50:26.668Z,52
2017-07-10T03:51:28.478Z,52
2017-07-10T03:52:30.295Z,48
2017-07-10T03:53:32.155Z,52
2017-07-10T03:54:34.520Z,52
2017-07-10T03:55:36.422Z,52
2017-07-10T03:56:38.475Z,56
2017-07-10T03:57:40.407Z,60
2017-07-10T03:58:42.325Z,56
2017-07-10T03:59:44.420Z,60
2017-07-10T04:00:46.215Z,56
2017-07-10T04:01:48.024Z,56
2017-07-10T04:02:49.794Z,60
2017-07-10T04:03:51.698Z,64
2017-07-10T04:04:53.834Z,68
2017-07-10T04:05:55.779Z,64
2017-07-10T04:06:57.647Z,48
2017-07-10T04:07:59.436Z,36
2017-07-10T04:09:01.321Z,28
2017-07-10T04:10:03.454Z,28
2017-07-10T04:11:05.266Z,28
2017-07-10T04:12:07.171Z,32
2017-07-10T04:13:08.991Z,36
2017-07-10T04:14:10.984Z,40
2017-07-10T04:15:13.256Z,52
2017-07-10T04:16:15.181Z,56
2017-07-10T04:17:17.023Z,64
2017-07-10T04:18:18.935Z,68
2017-07-10T04:19:20.820Z,72
2017-07-10T04:20:23.046Z,76
2017-07-10T04:21:24.819Z,64
2017-07-10T04:22:26.596Z,60
2017-07-10T04:23:28.468Z,60
2017-07-10T04:24:30.398Z,60
2017-07-10T04:25:32.628Z,76
2017-07-10T04:26:34.461Z,92
2017-07-10T04:27:36.283Z,108
2017-07-10T04:28:38.049Z,120
2017-07-10T04:29:39.869Z,136
2017-07-10T04:30:42.298Z,152
2017-07-10T04:31:44.143Z,156
2017-07-10T04:32:45.966Z,152
2017-07-10T04:33:47.772Z,148
2017-07-10T04:34:49.684Z,160
2017-07-10T04:35:52.649Z,172
2017-07-10T04:36:54.660Z,180
2017-07-10T04:37:57.730Z,188
2017-07-10T04:38:59.741Z,200
2017-07-10T04:40:01.590Z,208
2017-07-10T04:41:03.988Z,220
2017-07-10T04:42:05.994Z,232
2017-07-10T04:43:07.945Z,240
2017-07-10T04:44:10.051Z,248
2017-07-10T04:45:12.015Z,260
2017-07-10T04:46:14.329Z,276
2017-07-10T04:47:16.334Z,292
2017-07-10T04:48:18.270Z,292
2017-07-10T04:49:20.184Z,284
2017-07-10T04:50:22.120Z,292
2017-07-10T04:51:24.272Z,300
2017-07-10T04:52:26.209Z,292
2017-07-10T04:53:28.223Z,276
2017-07-10T04:54:30.206Z,264
2017-07-10T04:55:32.194Z,268
2017-07-10T04:56:34.620Z,272
2017-07-10T04:57:36.604Z,272
2017-07-10T04:58:38.638Z,264
2017-07-10T04:59:40.618Z,252
2017-07-10T05:00:42.582Z,248
2017-07-10T05:01:44.905Z,244
2017-07-10T05:02:46.798Z,240
2017-07-10T05:03:48.714Z,240
2017-07-10T05:04:50.749Z,240
2017-07-10T05:05:52.675Z,236
2017-07-10T05:06:54.952Z,240
2017-07-10T05:07:56.997Z,244
2017-07-10T05:08:59.048Z,248
2017-07-10T05:10:01.054Z,244
2017-07-10T05:11:02.956Z,244
2017-07-10T05:12:05.285Z,240
2017-07-10T05:13:07.307Z,244
2017-07-10T05:14:09.321Z,244
2017-07-10T05:15:11.260Z,252
2017-07-10T05:16:13.273Z,256
2017-07-10T05:17:15.752Z,256
2017-07-10T05:18:17.693Z,260
2017-07-10T05:19:19.663Z,264
2017-07-10T05:20:21.745Z,268
2017-07-10T05:21:23.803Z,268
2017-07-10T05:22:26.190Z,272
2017-07-10T05:23:28.155Z,276
2017-07-10T05:24:30.058Z,268
2017-07-10T05:25:32.094Z,264
2017-07-10T05:26:34.063Z,260
2017-07-10T05:27:36.434Z,256
2017-07-10T05:28:38.421Z,256
2017-07-10T05:29:40.404Z,256
2017-07-10T05:30:42.386Z,260
2017-07-10T05:31:44.400Z,264
2017-07-10T05:32:46.877Z,268
2017-07-10T05:33:48.891Z,272
2017-07-10T05:34:50.993Z,276
2017-07-10T05:35:53.036Z,276
2017-07-10T05:36:55.040Z,284
2017-07-10T05:37:57.471Z,288
2017-07-10T05:38:59.531Z,292
2017-07-10T05:40:01.563Z,300
2017-07-10T05:41:03.720Z,308
2017-07-10T05:42:05.709Z,316
2017-07-10T05:43:08.150Z,320
2017-07-10T05:44:10.180Z,328
2017-07-10T05:45:12.229Z,340
2017-07-10T05:46:14.261Z,356
2017-07-10T05:47:16.411Z,376
2017-07-10T05:48:18.861Z,388
2017-07-10T05:49:20.973Z,400
2017-07-10T05:50:22.997Z,404
2017-07-10T05:51:25.026Z,412
2017-07-10T05:52:27.143Z,416
2017-07-10T05:53:29.539Z,428
2017-07-10T05:54:31.515Z,436
2017-07-10T05:55:33.472Z,452
2017-07-10T05:56:35.545Z,464
2017-07-10T05:57:37.574Z,476
2017-07-10T05:58:39.944Z,484
2017-07-10T05:59:41.885Z,488
2017-07-10T06:00:44.452Z,500
2017-07-10T06:01:46.418Z,512
2017-07-10T06:02:48.376Z,520
2017-07-10T06:03:50.628Z,524
2017-07-10T06:04:52.627Z,528
2017-07-10T06:05:54.644Z,536
2017-07-10T06:06:56.699Z,540
2017-07-10T06:07:58.761Z,552
2017-07-10T06:09:01.118Z,556
2017-07-10T06:10:03.231Z,564
2017-07-10T06:11:05.318Z,556
2017-07-10T06:12:07.414Z,548
2017-07-10T06:13:09.503Z,544
2017-07-10T06:14:12.187Z,540
2017-07-10T06:15:14.242Z,536
2017-07-10T06:16:16.323Z,532
2017-07-10T06:17:18.364Z,528
2017-07-10T06:18:20.321Z,524
2017-07-10T06:19:22.805Z,528
2017-07-10T06:20:24.823Z,536
2017-07-10T06:21:26.911Z,540
2017-07-10T06:22:29.018Z,540
2017-07-10T06:23:31.197Z,540
2017-07-10T06:24:33.605Z,540
2017-07-10T06:25:35.667Z,544
2017-07-10T06:26:37.681Z,536
2017-07-10T06:27:39.772Z,540
2017-07-10T06:28:41.906Z,548
2017-07-10T06:29:45.536Z,560
2017-07-10T06:30:47.661Z,572
2017-07-10T06:31:49.757Z,596
2017-07-10T06:32:51.917Z,624
2017-07-10T06:33:54.145Z,648
2017-07-10T06:34:56.816Z,684
2017-07-10T06:35:59.600Z,712
2017-07-10T06:37:04.678Z,740
2017-07-10T06:56:24.265Z,1156
2017-07-10T06:57:25.939Z,1156
2017-07-10T06:58:27.764Z,1144
2017-07-10T06:59:30.027Z,1116
2017-07-10T07:00:31.973Z,1084
2017-07-10T07:01:33.951Z,1068
2017-07-10T07:02:35.938Z,1084
2017-07-10T07:03:37.836Z,1120
2017-07-10T07:04:40.143Z,1152
2017-07-10T07:05:42.038Z,1156
2017-07-10T07:06:44.020Z,1144
2017-07-10T07:07:46.022Z,1156
2017-07-10T07:08:48.128Z,1144
2017-07-10T07:09:50.375Z,1092
2017-07-10T07:10:52.376Z,1036
2017-07-10T07:11:54.304Z,960
2017-07-10T07:12:56.276Z,908
2017-07-10T07:13:58.192Z,888
2017-07-10T07:15:00.677Z,880
2017-07-10T07:16:02.667Z,868
2017-07-10T07:17:04.671Z,840
2017-07-10T07:18:06.696Z,824
2017-07-10T07:19:08.630Z,816
2017-07-10T07:20:10.873Z,796
2017-07-10T07:21:12.901Z,772
2017-07-10T07:22:14.718Z,748
2017-07-10T07:23:16.723Z,728
2017-07-10T07:24:18.554Z,712
2017-07-10T07:25:20.621Z,708
2017-07-10T07:26:23.096Z,700
2017-07-10T07:27:24.894Z,692
2017-07-10T07:28:26.855Z,684
2017-07-10T07:29:28.916Z,656
2017-07-10T07:30:31.364Z,628
2017-07-10T07:31:33.317Z,576
2017-07-10T07:32:35.361Z,536
2017-07-10T07:33:37.371Z,520
2017-07-10T07:34:39.306Z,512
2017-07-10T07:35:41.678Z,528
2017-07-10T07:36:44.123Z,544
2017-07-10T07:37:46.038Z,556
2017-07-10T07:38:47.811Z,604
2017-07-10T07:39:49.579Z,680
2017-07-10T07:40:52.255Z,760
2017-07-10T07:41:54.100Z,804
2017-07-10T07:42:55.891Z,760
2017-07-10T07:43:57.709Z,668
2017-07-10T07:44:59.596Z,568
2017-07-10T07:46:01.928Z,504
2017-07-10T07:47:04.344Z,436
2017-07-10T07:48:07.057Z,452
2017-07-10T07:49:09.080Z,592
2017-07-10T07:50:11.108Z,784
2017-07-10T07:51:13.407Z,972
2017-07-10T07:52:23.131Z,1104
2017-07-10T07:53:24.804Z,1248
2017-07-10T07:54:26.826Z,1316
2017-07-10T07:55:28.878Z,1372
2017-07-10T08:09:53.240Z,1120
2017-07-10T08:10:55.040Z,1100
2017-07-10T08:11:59.621Z,1096
2017-07-10T08:13:04.587Z,1052
2017-07-10T08:14:11.930Z,976
2017-07-10T08:15:15.522Z,880
2017-07-10T08:16:18.156Z,824
2017-07-10T08:17:20.270Z,800
2017-07-10T08:18:22.862Z,808
2017-07-10T08:19:25.192Z,844
2017-07-10T08:20:27.543Z,864
2017-07-10T08:21:29.565Z,872
2017-07-10T08:22:31.619Z,884
2017-07-10T08:23:33.651Z,908
2017-07-10T08:24:36.977Z,916
2017-07-10T08:25:39.332Z,892
2017-07-10T08:26:41.389Z,876
2017-07-10T08:27:43.523Z,856
2017-07-10T08:28:45.667Z,848
2017-07-10T08:29:47.779Z,828
2017-07-10T08:30:50.258Z,800
2017-07-10T08:31:52.242Z,780
2017-07-10T08:32:54.329Z,780
2017-07-10T08:33:56.242Z,768
2017-07-10T08:34:58.274Z,756
2017-07-10T08:36:00.584Z,772
2017-07-10T08:37:02.607Z,800
2017-07-10T08:38:04.870Z,836
2017-07-10T08:39:06.942Z,892
2017-07-10T08:40:09.096Z,900
2017-07-10T08:41:11.655Z,852
2017-07-10T08:42:13.434Z,804
2017-07-10T08:43:15.613Z,756
2017-07-10T08:44:17.716Z,720
2017-07-10T08:45:20.085Z,688
2017-07-10T08:46:22.446Z,664
2017-07-10T08:47:24.502Z,656
2017-07-10T08:48:26.783Z,676
2017-07-10T08:49:28.838Z,700
2017-07-10T08:50:30.918Z,704
2017-07-10T08:51:33.429Z,696
2017-07-10T08:52:35.319Z,672
2017-07-10T08:53:37.369Z,616
2017-07-10T08:54:39.261Z,564
2017-07-10T08:55:41.164Z,512
2017-07-10T08:56:44.395Z,476
2017-07-10T08:57:46.492Z,444
2017-07-10T08:58:48.570Z,432
2017-07-10T08:59:50.488Z,440
2017-07-10T09:00:52.435Z,480
2017-07-10T09:01:54.880Z,560
2017-07-10T09:02:56.854Z,684
2017-07-10T09:03:58.854Z,848
2017-07-10T09:05:00.864Z,1004
2017-07-10T09:06:02.768Z,1112
2017-07-10T09:07:05.086Z,1144
2017-07-10T09:08:10.116Z,1148
2017-07-10T09:12:58.188Z,860
2017-07-10T09:13:59.995Z,756
2017-07-10T09:15:02.562Z,656
2017-07-10T09:16:04.337Z,588
2017-07-10T09:17:06.309Z,540
2017-07-10T09:18:08.379Z,528
2017-07-10T09:19:10.256Z,556
2017-07-10T09:20:12.035Z,620
2017-07-10T09:21:13.905Z,680
2017-07-10T09:22:15.935Z,720
2017-07-10T09:23:18.325Z,756
2017-07-10T09:24:20.176Z,764
2017-07-10T09:25:21.927Z,772
2017-07-10T09:26:23.763Z,796
2017-07-10T09:27:25.815Z,844
2017-07-10T09:28:28.047Z,836
2017-07-10T09:29:30.014Z,720
2017-07-10T09:35:43.083Z,1032
2017-07-10T09:36:45.036Z,1068
2017-07-10T09:37:47.068Z,1084
2017-07-10T09:38:49.318Z,1064
2017-07-10T09:39:51.818Z,992
2017-07-10T09:40:54.176Z,904
2017-07-10T09:41:56.037Z,848
2017-07-10T09:42:58.166Z,840
2017-07-10T09:44:00.109Z,836
2017-07-10T09:45:02.073Z,796
2017-07-10T09:46:04.476Z,756
2017-07-10T09:47:06.438Z,740
2017-07-10T09:48:08.469Z,708
2017-07-10T09:49:10.434Z,676
2017-07-10T09:50:12.472Z,624
2017-07-10T09:51:14.818Z,580
2017-07-10T09:52:16.856Z,544
2017-07-10T09:53:18.818Z,512
2017-07-10T09:54:20.884Z,484
2017-07-10T09:55:22.843Z,472
2017-07-10T09:56:25.226Z,484
2017-07-10T09:57:27.483Z,520
2017-07-10T09:58:29.734Z,588
2017-07-10T10:09:14.184Z,1280
2017-07-10T10:10:17.468Z,1456
2017-07-10T10:11:20.282Z,1648
2017-07-10T10:12:23.474Z,1828
2017-07-10T10:13:26.067Z,2000
2017-07-10T10:14:29.184Z,2208
2017-07-10T10:15:31.970Z,2452
2017-07-10T10:16:39.041Z,2732
2017-07-10T10:17:44.415Z,2940
2017-07-10T10:29:34.363Z,4624
2017-07-10T10:31:24.115Z,5448
2017-07-10T10:32:27.765Z,6452
2017-07-10T10:33:30.052Z,8492
2017-07-10T10:34:32.129Z,6976
2017-07-10T10:35:34.810Z,6940
2017-07-10T10:37:43.407Z,5384
2017-07-10T10:38:46.360Z,3736
2017-07-10T10:57:22.726Z,2888
2017-07-10T10:58:25.208Z,2924
2017-07-10T10:59:27.114Z,2952
2017-07-10T11:00:29.187Z,2688
2017-07-10T11:01:31.163Z,2812
2017-07-10T11:02:33.692Z,2848
2017-07-10T11:03:35.610Z,2736
2017-07-10T11:04:37.454Z,2628
2017-07-10T11:05:39.351Z,2536
2017-07-10T11:06:42.280Z,2344
2017-07-10T11:07:44.679Z,2252
2017-07-10T11:08:46.728Z,2244
2017-07-10T11:28:05.480Z,3000
2017-07-10T11:29:08.641Z,2224
2017-07-10T11:30:11.608Z,1840
2017-07-10T11:31:13.368Z,1932
2017-07-10T11:32:15.320Z,2072
2017-07-10T11:33:17.770Z,1724
2017-07-10T11:34:19.542Z,1472
2017-07-10T11:35:21.411Z,1132
2017-07-10T11:36:23.382Z,1108
2017-07-10T11:37:25.176Z,1396
2017-07-10T11:38:27.330Z,1804
2017-07-10T11:39:29.140Z,1728
2017-07-10T11:40:30.984Z,1720
2017-07-10T11:41:32.776Z,1896
2017-07-10T11:42:34.459Z,1988
2017-07-10T11:43:36.581Z,2136
2017-07-10T11:44:38.316Z,2324
2017-07-10T11:45:40.087Z,2572
2017-07-10T11:46:41.835Z,2676
2017-07-10T11:47:43.788Z,2484
2017-07-10T11:48:46.066Z,2320
2017-07-10T11:50:03.269Z,2300
2017-07-10T11:51:05.304Z,2404
2017-07-10T11:52:07.240Z,2528
2017-07-10T11:53:09.139Z,2548
2017-07-10T11:54:11.481Z,2460
2017-07-10T11:55:13.623Z,2416
2017-07-10T11:56:16.242Z,2240
2017-07-10T12:01:28.077Z,2980
2017-07-10T12:02:31.235Z,3656
2017-07-10T12:03:33.305Z,4428
2017-07-10T12:04:35.357Z,4776
2017-07-10T12:05:37.507Z,4652
2017-07-10T12:06:39.954Z,4020
2017-07-10T12:07:41.949Z,3376
2017-07-10T12:08:44.847Z,2936
2017-07-10T12:09:46.798Z,2728
2017-07-10T12:10:48.751Z,2728
2017-07-10T12:11:51.097Z,2680
2017-07-10T12:12:53.209Z,2996
2017-07-10T12:13:55.311Z,3148
2017-07-10T12:14:57.381Z,3200
2017-07-10T12:15:59.317Z,3152
2017-07-10T12:17:01.859Z,3020
2017-07-10T12:18:03.889Z,3432
2017-07-10T12:19:05.977Z,3884
2017-07-10T12:20:08.041Z,4356
2017-07-10T12:21:10.103Z,5116
2017-07-10T12:22:12.430Z,6008
2017-07-10T12:23:14.432Z,8344
2017-07-10T12:24:16.451Z,9708
2017-07-10T12:25:18.828Z,8056
2017-07-10T12:26:20.881Z,7052
2017-07-10T12:27:23.420Z,5708
2017-07-10T12:28:25.183Z,4956
2017-07-10T12:29:27.287Z,5144
2017-07-10T12:30:29.912Z,7000
2017-07-10T12:31:31.993Z,8472
2017-07-10T12:32:34.212Z,5288
2017-07-10T12:33:36.227Z,6380
2017-07-10T12:34:38.211Z,6840
2017-07-10T12:35:40.379Z,7664
2017-07-10T12:36:42.495Z,8704
2017-07-10T12:38:40.270Z,6696
2017-07-10T12:39:43.682Z,7068
2017-07-10T12:40:45.797Z,7444
2017-07-10T12:41:48.232Z,8044
2017-07-10T12:45:11.625Z,3916
2017-07-10T12:46:15.019Z,3128
2017-07-10T12:47:18.450Z,3068
2017-07-10T12:48:20.612Z,2600
2017-07-10T12:49:22.907Z,2388
2017-07-10T12:50:25.497Z,2220
2017-07-10T12:51:27.643Z,2508
2017-07-10T12:52:29.823Z,2792
2017-07-10T12:53:32.415Z,2964
2017-07-10T12:54:41.549Z,3048
2017-07-10T12:55:44.366Z,3108
2017-07-10T12:56:48.107Z,3228
2017-07-10T12:57:50.171Z,3336
2017-07-10T12:58:52.469Z,3348
2017-07-10T13:00:00.583Z,3424
2017-07-10T14:59:10.376Z,5688
2017-07-10T15:00:12.775Z,5408
2017-07-10T15:01:15.948Z,4620
2017-07-10T15:02:18.168Z,5056
2017-07-10T15:03:20.831Z,4832
2017-07-10T15:04:24.115Z,4328
2017-07-10T15:05:27.315Z,4292
2017-07-10T15:06:31.079Z,4288
2017-07-10T15:07:33.231Z,3956
2017-07-10T15:08:35.319Z,3840
2017-07-10T15:09:37.562Z,3844
2017-07-10T15:10:41.457Z,4052
2017-07-10T15:11:45.617Z,3272
2017-07-10T15:12:47.796Z,3016
2017-07-10T15:13:50.000Z,3176
2017-07-10T15:14:54.188Z,3964
2017-07-10T15:15:56.653Z,4048
2017-07-10T15:16:58.780Z,3960
2017-07-10T15:18:01.387Z,4876
2017-07-10T15:19:03.635Z,7624
2017-07-10T15:20:05.959Z,7528
2017-07-10T15:21:08.949Z,6024
2017-07-10T15:22:11.062Z,6012
2017-07-10T15:23:13.852Z,5976
2017-07-10T15:24:17.034Z,5832
2017-07-10T15:25:19.781Z,6048
2017-07-10T15:26:23.377Z,5920
2017-07-10T15:27:37.709Z,5948
2017-07-10T15:51:50.535Z,2888
2017-07-10T15:52:52.092Z,3108
2017-07-10T15:53:54.081Z,3324
2017-07-10T15:54:56.153Z,3744
2017-07-10T15:55:58.340Z,3804
2017-07-10T15:57:00.743Z,3928
2017-07-10T15:58:02.789Z,3952
2017-07-10T15:59:04.891Z,4184
2017-07-10T16:00:06.937Z,4188
2017-07-10T16:01:08.991Z,3680
2017-07-10T16:02:11.459Z,3236
2017-07-10T16:03:13.534Z,2948
2017-07-10T16:04:15.619Z,2744
2017-07-10T16:05:17.706Z,2680
2017-07-10T16:06:19.849Z,2608
2017-07-10T16:07:22.273Z,2456
2017-07-10T16:08:24.282Z,2264
2017-07-10T16:09:26.703Z,2016
2017-07-10T16:10:28.771Z,1760
2017-07-10T16:11:30.797Z,1636
2017-07-10T16:12:33.349Z,1576
2017-07-10T16:13:35.385Z,1556
2017-07-10T16:14:37.499Z,1576
2017-07-10T16:15:39.651Z,1620
2017-07-10T16:16:41.656Z,1656
2017-07-10T16:17:44.115Z,1740
2017-07-10T16:18:46.156Z,1784
2017-07-10T16:19:48.262Z,1776
2017-07-10T16:20:50.461Z,1820
2017-07-10T16:21:52.486Z,1904
2017-07-10T16:22:54.925Z,2116
2017-07-10T16:23:57.041Z,2456
2017-07-10T16:24:59.083Z,2724
2017-07-10T16:26:01.117Z,2832
2017-07-10T16:27:03.267Z,2840
2017-07-10T16:28:05.923Z,2780
2017-07-10T16:29:07.954Z,2592
2017-07-10T16:30:11.107Z,2336
2017-07-10T16:31:13.254Z,2104
2017-07-10T16:32:15.573Z,1956
2017-07-10T16:33:18.464Z,1900
2017-07-10T16:34:20.548Z,1876
2017-07-10T16:35:22.715Z,1904
2017-07-10T16:36:24.833Z,1964
2017-07-10T16:37:27.411Z,2016
2017-07-10T16:38:29.793Z,2092
2017-07-10T16:39:31.904Z,2188
2017-07-10T16:40:34.150Z,2200
2017-07-10T16:41:36.341Z,2200
2017-07-10T16:42:38.514Z,2240
2017-07-10T16:43:40.789Z,2616
2017-07-10T16:44:42.815Z,2848
2017-07-10T16:45:44.867Z,3108
2017-07-10T16:46:47.002Z,3164
2017-07-10T16:47:48.988Z,3268
2017-07-10T16:48:51.544Z,3304
2017-07-10T16:49:53.719Z,3284
2017-07-10T16:50:56.030Z,3216
2017-07-10T16:51:59.515Z,3060
2017-07-10T16:53:03.216Z,2936
2017-07-10T16:54:05.583Z,2860
2017-07-10T16:55:07.697Z,2764
2017-07-10T16:56:10.020Z,2548
2017-07-10T16:57:12.072Z,2316
2017-07-10T16:58:14.161Z,2168
2017-07-10T16:59:16.496Z,1960
2017-07-10T17:00:18.613Z,1788
2017-07-10T17:01:20.721Z,1668
2017-07-10T17:02:22.764Z,1436
2017-07-10T17:03:24.783Z,1168
2017-07-10T17:04:27.211Z,1028
2017-07-10T17:05:29.331Z,1000
2017-07-10T17:06:31.358Z,936
2017-07-10T17:07:33.444Z,936
2017-07-10T17:08:35.585Z,960
2017-07-10T17:09:38.127Z,976
2017-07-10T17:10:40.268Z,1004
2017-07-10T17:11:42.360Z,1024
2017-07-10T17:12:45.016Z,1032
2017-07-10T17:13:47.209Z,976
2017-07-10T17:14:50.405Z,936
2017-07-10T17:15:52.760Z,900
2017-07-10T17:16:55.318Z,884
2017-07-10T17:17:58.882Z,852
2017-07-10T17:19:01.467Z,800
2017-07-10T17:20:05.663Z,748
2017-07-10T17:21:11.902Z,688
2017-07-10T17:22:13.910Z,648
2017-07-10T17:23:18.834Z,640
2017-07-10T17:24:20.860Z,628
2017-07-10T17:25:24.105Z,604
2017-07-10T17:26:26.550Z,580
2017-07-10T17:27:33.626Z,552
2017-07-10T17:28:36.638Z,520
2017-07-10T17:29:38.598Z,496
2017-07-10T17:30:40.869Z,464
2017-07-10T17:31:42.916Z,432
2017-07-10T17:32:44.874Z,416
2017-07-10T17:33:46.874Z,416
2017-07-10T17:34:48.911Z,408
2017-07-10T17:35:51.259Z,408
2017-07-10T17:36:53.480Z,392
2017-07-10T17:37:55.462Z,372
2017-07-10T17:38:57.485Z,348
2017-07-10T17:39:59.456Z,332
2017-07-10T17:41:01.932Z,340
2017-07-10T17:42:03.850Z,340
2017-07-10T17:43:05.812Z,336
2017-07-10T17:44:07.813Z,332
2017-07-10T17:45:09.878Z,340
2017-07-10T17:46:12.397Z,364
2017-07-10T17:47:14.322Z,384
2017-07-10T17:48:16.328Z,420
2017-07-10T17:49:18.391Z,432
2017-07-10T17:50:20.339Z,436
2017-07-10T17:51:22.567Z,412
2017-07-10T17:52:24.637Z,364
2017-07-10T17:53:26.593Z,312
2017-07-10T17:54:28.578Z,272
2017-07-10T17:55:30.638Z,260
2017-07-10T17:56:33.101Z,244
2017-07-10T17:57:35.089Z,232
2017-07-10T17:58:37.168Z,228
2017-07-10T17:59:39.194Z,220
2017-07-10T18:00:41.287Z,208
2017-07-10T18:01:43.845Z,200
2017-07-10T18:02:45.910Z,192
2017-07-10T18:03:47.817Z,184
2017-07-10T18:04:49.877Z,172
2017-07-10T18:05:51.826Z,164
2017-07-10T18:06:54.108Z,152
2017-07-10T18:07:56.163Z,144
2017-07-10T18:08:58.154Z,136
2017-07-10T18:10:00.216Z,128
2017-07-10T18:11:02.232Z,128
2017-07-10T18:12:04.647Z,120
2017-07-10T18:13:07.097Z,120
2017-07-10T18:14:08.927Z,120
2017-07-10T18:15:11.004Z,120
2017-07-10T18:16:13.021Z,120
2017-07-10T18:17:15.453Z,116
2017-07-10T18:18:17.457Z,112
2017-07-10T18:19:19.662Z,104
2017-07-10T18:20:21.541Z,104
2017-07-10T18:21:23.539Z,100
2017-07-10T18:22:25.897Z,96
2017-07-10T18:23:27.998Z,92
2017-07-10T18:24:30.041Z,84
2017-07-10T18:25:32.260Z,80
2017-07-10T18:26:34.305Z,76
2017-07-10T18:27:36.702Z,76
2017-07-10T18:28:38.736Z,76
2017-07-10T18:29:40.773Z,72
2017-07-10T18:30:42.793Z,72
2017-07-10T18:31:44.888Z,72
2017-07-10T18:32:47.191Z,64